Flight Track Log - Related Links

Times and Time Zones

All times are in EDT time to prevent confusion due to time zone crossing. See the EGF3046 flight status page for this flight to view local times or setup timezone preferences in your user account.

Time Position Orientation Groundspeed Altitude Reporting Facility
EDT Latitude Longitude Course Direction KTS MPH feet Rate Location/Type
Mon 05:34:12 PM 43.1064 -76.1658 259° West 174 200 1,800  Level Boston Center
Mon 05:36:10 PM 43.1564 -76.3053 296° West 211 243 6,100 2,191 Climbing Cleveland Center
Mon 05:37:10 PM 43.1864 -76.3800 299° West 222 255 8,300 2,050 Climbing Cleveland Center
Mon 05:38:10 PM 43.2000 -76.4703 282° West 229 264 10,200 1,500 Climbing Cleveland Center
Mon 05:39:10 PM 43.1994 -76.5758 270° West 250 288 11,300 1,050 Climbing Cleveland Center
Mon 05:40:10 PM 43.1972 -76.6928 269° West 286 329 12,300 1,250 Climbing Cleveland Center
Mon 05:41:10 PM 43.1925 -76.8042 267° West 317 365 13,800 1,500 Climbing Cleveland Center
Mon 05:42:10 PM 43.1903 -76.9267 269° West 322 371 15,300 1,400 Climbing Cleveland Center
Mon 05:43:10 PM 43.1878 -77.0467 268° West 327 376 16,600 1,200 Climbing Cleveland Center
Mon 05:44:10 PM 43.1872 -77.1719 270° West 327 376 17,700 1,000 Climbing Cleveland Center
Mon 05:45:10 PM 43.1828 -77.3031 267° West 332 382 18,600 942 Climbing Cleveland Center
Mon 05:46:11 PM 43.1803 -77.4342 269° West 337 388 19,600 1,000 Climbing Cleveland Center
Mon 05:47:10 PM 43.1778 -77.5739 269° West 360 414 20,600 1,008 Climbing Cleveland Center
Mon 05:48:10 PM 43.1750 -77.7108 268° West 365 420 21,600 1,000 Climbing Cleveland Center
Mon 05:49:10 PM 43.1719 -77.8533 268° West 365 420 22,600 1,000 Climbing Cleveland Center
Mon 05:50:10 PM 43.1689 -77.9928 268° West 365 420 23,600 1,000 Climbing Cleveland Center
Mon 05:51:10 PM 43.1636 -78.1297 267° West 365 420 24,600 1,041 Climbing Cleveland Center
Mon 05:52:11 PM 43.1603 -78.2636 268° West 365 420 25,700 1,150 Climbing Cleveland Center
Mon 05:53:10 PM 43.1564 -78.3975 268° West 365 420 26,900 1,210 Climbing Cleveland Center
Mon 05:54:10 PM 43.1525 -78.5231 268° West 359 413 28,100 1,150 Climbing Cleveland Center
Mon 05:55:10 PM 43.1483 -78.6425 267° West 338 389 29,200 1,140 Climbing Cleveland Center
Mon 05:56:11 PM 43.1461 -78.7592 269° West 326 375 30,400 1,200 Climbing Cleveland Center
Mon 05:57:10 PM 43.1417 -78.8761 267° West 321 369 31,600 1,280 Climbing Cleveland Center
Mon 05:57:26 PM 43.1333 -78.9000 244° Southwest 310 357 32,000 316 Climbing Toronto Center
Mon 05:58:26 PM 43.1333 -79.0167 270° West 320 368 32,000 300 Level Toronto Center
Mon 05:59:26 PM 43.1167 -79.1500 260° West 350 403 32,600 750 Climbing Toronto Center
Mon 06:00:26 PM 43.1167 -79.2833 270° West 350 403 33,500 950 Climbing Toronto Center
Mon 06:01:26 PM 43.1167 -79.4333 270° West 340 391 34,500 950 Climbing Toronto Center
Mon 06:02:26 PM 43.1000 -79.5500 259° West 340 391 35,400 750 Climbing Toronto Center
Mon 06:03:26 PM 43.1000 -79.6500 270° West 330 380 36,000 300 Climbing Toronto Center
Mon 06:04:26 PM 43.1000 -79.8000 270° West 330 380 36,000  Level Toronto Center
Mon 06:05:26 PM 43.0833 -79.9333 260° West 330 380 36,000  Level Toronto Center
Mon 06:06:26 PM 43.0833 -80.0500 270° West 330 380 36,000  Level Toronto Center
Mon 06:07:26 PM 43.0833 -80.1833 270° West 330 380 36,000  Level Toronto Center
Mon 06:08:26 PM 43.0667 -80.3000 259° West 330 380 36,000  Level Toronto Center
Mon 06:09:26 PM 43.0667 -80.4333 270° West 330 380 36,000  Level Toronto Center
Mon 06:10:26 PM 43.0667 -80.5500 270° West 330 380 36,000  Level Toronto Center
Mon 06:11:26 PM 43.0500 -80.6667 259° West 330 380 36,000  Level Toronto Center
Mon 06:12:26 PM 43.0500 -80.8000 270° West 330 380 36,000  Level Toronto Center
Mon 06:13:26 PM 43.0333 -80.9167 259° West 330 380 36,000  Level Toronto Center
Mon 06:14:26 PM 43.0167 -81.0500 260° West 320 368 36,000  Level Toronto Center
Mon 06:15:26 PM 43.0167 -81.1667 270° West 320 368 36,000  Level Toronto Center
Mon 06:16:26 PM 43.0167 -81.3000 270° West 320 368 36,000  Level Toronto Center
Mon 06:17:26 PM 43.0167 -81.4167 270° West 320 368 36,000  Level Toronto Center
Mon 06:18:26 PM 43.0167 -81.5333 270° West 320 368 36,000  Level Toronto Center
Mon 06:19:26 PM 43.0167 -81.6333 270° West 310 357 36,000  Level Toronto Center
Mon 06:20:26 PM 43.0167 -81.7500 270° West 310 357 36,000  Level Toronto Center
Mon 06:21:26 PM 43.0167 -81.8833 270° West 320 368 36,000  Level Toronto Center
Mon 06:22:26 PM 43.0000 -82.0000 259° West 330 380 36,000  Level Toronto Center
Mon 06:23:26 PM 43.0000 -82.1333 270° West 320 368 36,000  Level Toronto Center
Mon 06:24:26 PM 43.0000 -82.2500 270° West 320 368 36,000  Level Toronto Center
Mon 06:25:26 PM 43.0000 -82.3667 270° West 320 368 36,000  Level Toronto Center
Mon 06:26:26 PM 43.0000 -82.5000 270° West 330 380 36,000 -150 Level Toronto Center
Mon 06:27:26 PM 43.0000 -82.6167 270° West 330 380 35,700 -450 Descending Toronto Center
Mon 06:27:46 PM 43.0022 -82.6611 274° West 325 374 35,400 -963 Descending Cleveland Center
Mon 06:28:47 PM 42.9997 -82.7861 268° West 325 374 34,400 -992 Descending Cleveland Center
Mon 06:29:47 PM 42.9953 -82.9081 267° West 325 374 33,400 -1,000 Descending Cleveland Center
Mon 06:30:47 PM 42.9906 -83.0356 267° West 330 380 32,400 -700 Descending Cleveland Center
Mon 06:31:47 PM 42.9878 -83.1689 268° West 341 392 32,000 -200 Descending Cleveland Center
Mon 06:32:47 PM 42.9825 -83.3050 267° West 355 409 32,000  Level Cleveland Center
Mon 06:33:47 PM 42.9750 -83.4436 266° West 362 417 32,000  Level Cleveland Center
Mon 06:34:47 PM 42.9717 -83.5769 268° West 362 417 32,000  Level Cleveland Center
Mon 06:35:47 PM 42.9678 -83.7158 268° West 362 417 32,000  Level Cleveland Center
Mon 06:36:46 PM 42.9556 -83.8542 263° West 362 417 32,000  Level Cleveland Center
Mon 06:37:47 PM 42.9414 -83.9925 262° West 367 422 32,000  Level Cleveland Center
Mon 06:38:47 PM 42.9289 -84.1278 263° West 367 422 32,000  Level Cleveland Center
Mon 06:39:13 PM 42.9233 -84.1878 263° West 369 425 32,000  Level Chicago Center
Mon 06:40:15 PM 42.9097 -84.3264 262° West 369 425 32,000  Level Chicago Center
Mon 06:41:17 PM 42.8961 -84.4656 262° West 370 426 32,000  Level Chicago Center
Mon 06:42:19 PM 42.8800 -84.6256 262° West 359 413 32,000  Level Chicago Center
Mon 06:43:21 PM 42.8667 -84.7606 262° West 358 412 32,000  Level Chicago Center
Mon 06:44:23 PM 42.8519 -84.8975 262° West 365 420 32,000  Level Chicago Center
Mon 06:45:25 PM 42.8369 -85.0331 261° West 364 419 32,000 -97 Level Chicago Center
Mon 06:46:27 PM 42.8225 -85.1714 262° West 366 421 31,800 -528 Descending Chicago Center
Mon 06:47:30 PM 42.8069 -85.3083 261° West 367 422 30,900 -864 Descending Chicago Center
Mon 06:48:32 PM 42.7900 -85.4719 262° West 364 419 30,000 -435 Descending Chicago Center
Mon 06:49:34 PM 42.7675 -85.6056 257° West 362 417 30,000 -726 Level Chicago Center
Mon 06:50:36 PM 42.7425 -85.7392 256° West 362 417 28,500 -1,839 Descending Chicago Center
Mon 06:51:38 PM 42.7189 -85.8714 256° West 359 413 26,200 -2,274 Descending Chicago Center
Mon 06:52:40 PM 42.6958 -85.9992 256° West 349 402 23,800 -2,323 Descending Chicago Center
Mon 06:53:42 PM 42.6728 -86.1233 256° West 339 390 21,400 -1,839 Descending Chicago Center
Mon 06:54:44 PM 42.6508 -86.2436 256° West 330 380 20,000 -677 Descending Chicago Center
Mon 06:55:46 PM 42.6247 -86.3817 256° West 317 365 20,000 -97 Level Chicago Center
Mon 06:56:48 PM 42.6031 -86.4975 256° West 317 365 19,800 -823 Descending Chicago Center
Mon 06:57:50 PM 42.5806 -86.6125 256° West 316 364 18,300 -1,536 Descending Chicago Center
Mon 06:58:00 PM 42.5645 -86.6370 256° West  Level FlightAware Approximate
Mon 06:58:53 PM 42.5597 -86.7319 257° West 315 362 16,600  Level Chicago Center
Mon 06:59:58 PM 42.5333 -86.8292 250° West 290 334 15,500 -1,559 Descending Chicago Center
Mon 07:01:00 PM 42.5014 -86.9444 249° West 275 316 13,300 -2,032 Descending Chicago Center
Mon 07:02:02 PM 42.4747 -87.0386 249° West 269 310 11,300 -1,984 Descending Chicago Center
Mon 07:03:04 PM 42.4472 -87.1353 249° West 271 312 9,200 -1,452 Descending Chicago Center
Mon 07:04:06 PM 42.4208 -87.2308 250° West 273 314 8,300 -919 Descending Chicago Center
Mon 07:05:08 PM 42.3750 -87.3094 232° Southwest 270 311 7,300 -1,016 Descending Chicago Center
Mon 07:06:10 PM 42.3111 -87.3872 222° Southwest 261 300 6,200 -774 Descending Chicago Center
Mon 07:07:12 PM 42.2578 -87.4531 222° Southwest 260 299 5,700 -672 Descending Chicago Center
Mon 07:08:15 PM 42.2053 -87.5225 224° Southwest 264 304 4,800 -816 Descending Chicago Center
Mon 07:09:17 PM 42.1558 -87.5861 224° Southwest 252 290 4,000 -387 Descending Chicago Center
Mon 07:10:19 PM 42.1139 -87.6425 225° Southwest 230 265 4,000 -194 Level Chicago Center
Mon 07:11:21 PM 42.0603 -87.7106 223° Southwest 222 255 3,600 -387 Descending Chicago Center

Login

Don't have an account? Register now (free) for customized features, flight alerts, and more!